createdAt,value
2019-04-14T00:02:22.798Z,3.10
2019-04-14T00:04:52.979Z,3.10
2019-04-14T00:07:23.059Z,3.10
2019-04-14T00:09:52.283Z,3.00
2019-04-14T00:12:21.495Z,3.00
2019-04-14T00:14:51.338Z,2.90
2019-04-14T00:17:21.627Z,2.90
2019-04-14T00:19:50.883Z,2.90
2019-04-14T00:22:20.564Z,2.80
2019-04-14T00:24:50.987Z,2.80
2019-04-14T00:27:21.449Z,2.80
2019-04-14T00:29:50.743Z,2.80
2019-04-14T00:32:20.509Z,2.70
2019-04-14T00:35:10.771Z,2.70
2019-04-14T00:38:02.398Z,2.70
2019-04-14T00:40:43.246Z,2.60
2019-04-14T00:43:37.453Z,2.60
2019-04-14T00:46:14.661Z,2.50
2019-04-14T00:48:45.143Z,2.50
2019-04-14T00:51:15.490Z,2.50
2019-04-14T00:53:44.931Z,2.40
2019-04-14T00:56:14.988Z,2.40
2019-04-14T00:58:45.350Z,2.30
2019-04-14T01:01:15.476Z,2.30
2019-04-14T01:03:45.855Z,2.20
2019-04-14T01:06:16.326Z,2.20
2019-04-14T01:08:46.712Z,2.20
2019-04-14T01:11:16.030Z,2.20
2019-04-14T01:13:46.191Z,2.10
2019-04-14T01:16:20.181Z,2.10
2019-04-14T01:18:47.307Z,2.00
2019-04-14T01:21:17.443Z,2.00
2019-04-14T01:23:47.933Z,2.00
2019-04-14T01:26:18.121Z,2.00
2019-04-14T01:28:48.321Z,1.90
2019-04-14T01:31:18.458Z,1.90
2019-04-14T01:33:49.010Z,1.90
2019-04-14T01:36:19.175Z,1.80
2019-04-14T01:38:49.264Z,1.80
2019-04-14T01:41:19.356Z,1.80
2019-04-14T01:43:49.622Z,1.70
2019-04-14T01:46:24.699Z,1.70
2019-04-14T01:48:49.831Z,1.70
2019-04-14T01:51:37.425Z,1.60
2019-04-14T01:54:29.871Z,1.60
2019-04-14T01:57:18.293Z,1.50
2019-04-14T01:59:48.261Z,1.50
2019-04-14T02:02:20.558Z,1.50
2019-04-14T02:04:50.714Z,1.40
2019-04-14T02:07:21.195Z,1.40
2019-04-14T02:09:51.077Z,1.40
2019-04-14T02:12:21.424Z,1.40
2019-04-14T02:14:51.628Z,1.30
2019-04-14T02:17:22.055Z,1.30
2019-04-14T02:19:52.380Z,1.30
2019-04-14T02:22:22.381Z,1.30
2019-04-14T02:24:52.716Z,1.30
2019-04-14T02:27:23.071Z,1.30
2019-04-14T02:29:53.747Z,1.30
2019-04-14T02:32:54.980Z,1.30
2019-04-14T02:35:22.786Z,1.30
2019-04-14T02:37:54.410Z,1.30
2019-04-14T02:40:27.382Z,1.30
2019-04-14T02:42:54.555Z,1.20
2019-04-14T02:45:26.757Z,1.20
2019-04-14T02:53:01.646Z,1.20
2019-04-14T02:55:21.237Z,1.20
2019-04-14T02:58:04.314Z,1.30
2019-04-14T03:00:31.731Z,1.30
2019-04-14T03:02:56.377Z,1.30
2019-04-14T03:08:03.997Z,1.30
2019-04-14T03:10:32.021Z,1.30
2019-04-14T03:13:09.243Z,1.30
2019-04-14T03:18:33.776Z,1.30
2019-04-14T03:21:21.266Z,1.30
2019-04-14T03:24:06.668Z,1.30
2019-04-14T03:26:42.024Z,1.30
2019-04-14T03:29:21.177Z,1.20
2019-04-14T03:37:31.072Z,1.10
2019-04-14T03:39:27.347Z,1.10
2019-04-14T03:41:58.224Z,1.10
2019-04-14T03:44:30.770Z,1.10
2019-04-14T03:47:02.938Z,1.10
2019-04-14T03:54:22.728Z,1.10
2019-04-14T03:56:51.212Z,1.10
2019-04-14T03:59:21.869Z,1.10
2019-04-14T04:01:52.237Z,1.10
2019-04-14T04:04:22.665Z,1.20
2019-04-14T04:06:53.055Z,1.20
2019-04-14T04:09:26.423Z,1.20
2019-04-14T04:11:56.338Z,1.20
2019-04-14T04:14:25.574Z,1.20
2019-04-14T04:17:04.122Z,1.20
2019-04-14T04:20:11.032Z,1.30
2019-04-14T04:22:59.302Z,1.30
2019-04-14T04:25:40.036Z,1.30
2019-04-14T04:28:25.623Z,1.30
2019-04-14T04:31:06.643Z,1.40
2019-04-14T04:33:54.467Z,1.40
2019-04-14T04:36:46.368Z,1.40
2019-04-14T04:39:19.872Z,1.50
2019-04-14T04:41:49.494Z,1.50
2019-04-14T04:44:20.129Z,1.50
2019-04-14T04:46:50.403Z,1.50
2019-04-14T04:49:24.072Z,1.50
2019-04-14T04:51:50.857Z,1.50
2019-04-14T04:54:21.068Z,1.60
2019-04-14T04:56:51.507Z,1.60
2019-04-14T04:59:21.265Z,1.60
2019-04-14T05:01:51.537Z,1.60
2019-04-14T05:04:22.008Z,1.60
2019-04-14T05:06:59.279Z,1.60
2019-04-14T05:09:47.514Z,1.70
2019-04-14T05:12:26.269Z,1.70
2019-04-14T05:15:05.337Z,1.70
2019-04-14T05:17:34.987Z,1.70
2019-04-14T05:20:05.216Z,1.70
2019-04-14T05:22:35.417Z,1.70
2019-04-14T05:25:05.757Z,1.70
2019-04-14T05:27:35.088Z,1.80
2019-04-14T05:30:04.711Z,1.80
2019-04-14T05:32:34.735Z,1.80
2019-04-14T05:35:05.234Z,1.90
2019-04-14T05:37:35.469Z,1.90
2019-04-14T05:40:05.890Z,2.00
2019-04-14T05:42:36.160Z,2.00
2019-04-14T05:45:06.610Z,2.10
2019-04-14T05:47:37.066Z,2.10
2019-04-14T05:50:07.411Z,2.20
2019-04-14T05:52:36.704Z,2.20
2019-04-14T05:55:07.074Z,2.20
2019-04-14T05:57:37.240Z,2.20
2019-04-14T06:00:10.367Z,2.30
2019-04-14T06:02:39.942Z,2.30
2019-04-14T06:05:11.278Z,2.40
2019-04-14T06:07:40.179Z,2.40
2019-04-14T06:10:09.468Z,2.40
2019-04-14T06:12:38.687Z,2.50
2019-04-14T06:15:07.940Z,2.50
2019-04-14T06:17:37.184Z,2.60
2019-04-14T06:20:06.980Z,2.70
2019-04-14T06:22:36.263Z,2.80
2019-04-14T06:25:06.920Z,2.90
2019-04-14T06:27:37.321Z,3.00
2019-04-14T06:30:27.420Z,3.20
2019-04-14T06:32:58.024Z,3.30
2019-04-14T06:35:32.710Z,3.50
2019-04-14T06:38:05.846Z,3.70
2019-04-14T06:40:54.371Z,3.80
2019-04-14T06:43:23.566Z,4.00
2019-04-14T06:45:52.776Z,4.20
2019-04-14T06:48:22.009Z,4.30
2019-04-14T06:50:51.231Z,4.40
2019-04-14T06:53:20.487Z,4.50
2019-04-14T06:55:49.748Z,4.70
2019-04-14T06:58:18.971Z,4.80
2019-04-14T07:00:48.148Z,4.90
2019-04-14T07:03:17.348Z,5.00
2019-04-14T07:05:46.556Z,5.00
2019-04-14T07:08:15.748Z,5.10
2019-04-14T07:10:44.960Z,5.10
2019-04-14T07:13:14.163Z,5.10
2019-04-14T07:15:43.343Z,5.10
2019-04-14T07:18:12.564Z,5.20
2019-04-14T07:20:41.835Z,5.30
2019-04-14T07:23:11.118Z,5.30
2019-04-14T07:25:40.372Z,5.40
2019-04-14T07:28:09.660Z,5.40
2019-04-14T07:30:44.845Z,5.50
2019-04-14T07:33:35.996Z,5.60
2019-04-14T07:36:27.344Z,5.70
2019-04-14T07:39:08.113Z,5.80
2019-04-14T07:41:44.261Z,5.90
2019-04-14T07:44:31.432Z,6.00
2019-04-14T07:47:20.175Z,6.10
2019-04-14T07:49:55.551Z,6.20
2019-04-14T07:52:36.440Z,6.30
2019-04-14T07:55:24.003Z,6.40
2019-04-14T07:58:03.635Z,6.50
2019-04-14T08:00:40.331Z,6.60
2019-04-14T08:03:14.227Z,6.70
2019-04-14T08:05:43.491Z,6.80
2019-04-14T08:08:12.679Z,6.80
2019-04-14T08:10:41.964Z,6.90
2019-04-14T08:13:11.164Z,7.00
2019-04-14T08:15:40.349Z,7.00
2019-04-14T08:18:09.591Z,7.10
2019-04-14T08:20:38.784Z,7.10
2019-04-14T08:23:08.000Z,7.20
2019-04-14T08:25:37.229Z,7.20
2019-04-14T08:28:06.427Z,7.30
2019-04-14T08:30:35.643Z,7.40
2019-04-14T08:33:04.835Z,7.50
2019-04-14T08:35:34.199Z,7.60
2019-04-14T08:38:03.432Z,7.80
2019-04-14T08:40:32.744Z,7.90
2019-04-14T08:43:23.788Z,8.20
2019-04-14T08:46:10.676Z,8.40
2019-04-14T08:48:49.104Z,8.60
2019-04-14T08:51:33.204Z,8.70
2019-04-14T08:54:14.984Z,8.70
2019-04-14T08:56:50.530Z,8.80
2019-04-14T08:59:37.348Z,9.00
2019-04-14T09:02:14.356Z,9.10
2019-04-14T09:05:14.904Z,9.10
2019-04-14T09:07:50.380Z,9.20
2019-04-14T09:10:25.839Z,9.20
2019-04-14T09:12:56.763Z,9.10
2019-04-14T09:15:26.062Z,8.90
2019-04-14T09:17:55.239Z,8.80
2019-04-14T09:20:24.456Z,8.70
2019-04-14T09:22:53.643Z,8.60
2019-04-14T09:25:22.837Z,8.50
2019-04-14T09:27:52.063Z,8.50
2019-04-14T09:30:21.339Z,8.50
2019-04-14T09:32:50.579Z,8.50
2019-04-14T09:35:19.756Z,8.60
2019-04-14T09:37:48.973Z,8.70
2019-04-14T09:40:18.293Z,8.70
2019-04-14T09:42:47.511Z,8.60
2019-04-14T09:45:16.720Z,8.50
2019-04-14T09:47:45.944Z,8.30
2019-04-14T09:50:15.167Z,8.20
2019-04-14T09:52:44.336Z,8.10
2019-04-14T09:55:13.668Z,8.00
2019-04-14T09:57:42.885Z,8.00
2019-04-14T10:00:14.284Z,7.80
2019-04-14T10:02:43.495Z,7.80
2019-04-14T10:05:12.861Z,7.70
2019-04-14T10:07:42.043Z,7.70
2019-04-14T10:10:11.275Z,7.70
2019-04-14T10:12:40.558Z,7.60
2019-04-14T10:15:10.662Z,7.60
2019-04-14T10:17:39.849Z,7.60
2019-04-14T10:20:09.635Z,7.60
2019-04-14T10:22:38.854Z,7.60
2019-04-14T10:25:08.059Z,7.60
2019-04-14T10:27:37.272Z,7.60
2019-04-14T10:30:06.988Z,7.60
2019-04-14T10:32:36.185Z,7.50
2019-04-14T10:35:05.680Z,7.50
2019-04-14T10:37:34.971Z,7.40
2019-04-14T10:40:06.089Z,7.30
2019-04-14T10:42:35.461Z,7.30
2019-04-14T10:45:05.027Z,7.30
2019-04-14T10:47:34.299Z,7.40
2019-04-14T10:50:03.527Z,7.50
2019-04-14T10:52:32.808Z,7.60
2019-04-14T10:55:02.040Z,7.70
2019-04-14T10:57:31.271Z,7.70
2019-04-14T11:00:00.528Z,7.80
2019-04-14T11:02:29.747Z,7.80
2019-04-14T11:04:59.036Z,7.90
2019-04-14T11:07:30.035Z,8.00
2019-04-14T11:09:59.270Z,8.10
2019-04-14T11:12:28.452Z,8.10
2019-04-14T11:14:57.697Z,8.00
2019-04-14T11:17:26.940Z,7.90
2019-04-14T11:19:56.167Z,7.90
2019-04-14T11:22:25.382Z,7.80
2019-04-14T11:24:57.455Z,7.80
2019-04-14T11:27:26.644Z,7.70
2019-04-14T11:29:55.973Z,7.60
2019-04-14T11:32:44.223Z,7.60
2019-04-14T11:35:18.642Z,7.60
2019-04-14T11:38:05.500Z,7.60
2019-04-14T11:40:40.095Z,7.60
2019-04-14T11:43:09.331Z,7.60
2019-04-14T11:45:38.574Z,7.60
2019-04-14T11:48:07.804Z,7.60
2019-04-14T11:50:37.080Z,7.50
2019-04-14T11:53:06.358Z,7.50
2019-04-14T11:55:35.672Z,7.40
2019-04-14T11:58:04.865Z,7.30
2019-04-14T12:01:05.240Z,7.30
2019-04-14T12:03:56.240Z,7.40
2019-04-14T12:06:43.324Z,7.40
2019-04-14T12:09:16.165Z,7.50
2019-04-14T12:11:45.466Z,7.50
2019-04-14T12:14:14.671Z,7.60
2019-04-14T12:16:43.892Z,7.50
2019-04-14T12:19:13.083Z,7.50
2019-04-14T12:21:42.332Z,7.50
2019-04-14T12:24:11.544Z,7.40
2019-04-14T12:26:40.963Z,7.40
2019-04-14T12:29:10.253Z,7.40
2019-04-14T12:31:39.951Z,7.40
2019-04-14T12:34:09.275Z,7.40
2019-04-14T12:36:38.475Z,7.40
2019-04-14T12:39:15.535Z,7.40
2019-04-14T12:41:49.820Z,7.50
2019-04-14T12:44:41.172Z,7.50
2019-04-14T12:47:20.715Z,7.50
2019-04-14T12:49:50.880Z,7.50
2019-04-14T12:52:25.103Z,7.50
2019-04-14T12:54:54.427Z,7.40
2019-04-14T12:57:32.011Z,7.30
2019-04-14T13:00:01.305Z,7.30
2019-04-14T13:02:36.387Z,7.30
2019-04-14T13:05:05.902Z,7.30
2019-04-14T13:07:36.867Z,7.20
2019-04-14T13:10:07.418Z,7.20
2019-04-14T13:12:36.688Z,7.20
2019-04-14T13:15:06.688Z,7.20
2019-04-14T13:17:35.964Z,7.20
2019-04-14T13:20:05.854Z,7.20
2019-04-14T13:22:35.088Z,7.20
2019-04-14T13:25:04.826Z,7.20
2019-04-14T13:27:34.008Z,7.20
2019-04-14T13:30:03.467Z,7.20
2019-04-14T13:32:36.281Z,7.20
2019-04-14T13:35:03.531Z,7.10
2019-04-14T13:37:32.759Z,7.10
2019-04-14T13:40:02.036Z,7.10
2019-04-14T13:42:31.236Z,7.10
2019-04-14T13:45:00.456Z,7.10
2019-04-14T13:47:29.641Z,7.00
2019-04-14T13:49:58.830Z,7.00
2019-04-14T13:52:30.776Z,7.00
2019-04-14T13:54:58.928Z,7.00
2019-04-14T13:57:28.223Z,7.00
2019-04-14T13:59:57.404Z,7.00
2019-04-14T14:02:26.704Z,7.10
2019-04-14T14:04:55.889Z,7.10
2019-04-14T14:07:25.112Z,7.10
2019-04-14T14:09:57.017Z,7.20
2019-04-14T14:12:33.245Z,7.20
2019-04-14T14:15:14.444Z,7.20
2019-04-14T14:17:48.611Z,7.20
2019-04-14T14:20:24.777Z,7.20
2019-04-14T14:23:18.824Z,7.20
2019-04-14T14:25:51.582Z,7.20
2019-04-14T14:28:20.834Z,7.20
2019-04-14T14:30:50.028Z,7.20
2019-04-14T14:33:19.231Z,7.20
2019-04-14T14:35:48.417Z,7.20
2019-04-14T14:38:17.776Z,7.20
2019-04-14T14:40:49.151Z,7.20
2019-04-14T14:43:17.981Z,7.20
2019-04-14T14:46:00.548Z,7.20
2019-04-14T14:48:40.600Z,7.20
2019-04-14T14:51:41.004Z,7.20
2019-04-14T14:54:10.223Z,7.20
2019-04-14T14:56:39.425Z,7.20
2019-04-14T14:59:08.771Z,7.20
2019-04-14T15:01:38.060Z,7.30
2019-04-14T15:04:07.300Z,7.30
2019-04-14T15:06:36.589Z,7.30
2019-04-14T15:09:06.960Z,7.40
2019-04-14T15:11:36.247Z,7.40
2019-04-14T15:14:06.634Z,7.40
2019-04-14T15:16:36.044Z,7.40
2019-04-14T15:19:05.505Z,7.40
2019-04-14T15:21:34.705Z,7.50
2019-04-14T15:24:04.079Z,7.50
2019-04-14T15:26:33.296Z,7.50
2019-04-14T15:29:02.571Z,7.50
2019-04-14T15:31:31.779Z,7.50
2019-04-14T15:34:00.993Z,7.60
2019-04-14T15:36:30.200Z,7.60
2019-04-14T15:38:59.423Z,7.60
2019-04-14T15:41:28.628Z,7.70
2019-04-14T15:43:57.987Z,7.70
2019-04-14T15:46:27.179Z,7.70
2019-04-14T15:48:56.418Z,7.70
2019-04-14T15:51:25.606Z,7.80
2019-04-14T15:53:54.855Z,7.80
2019-04-14T15:56:34.860Z,7.80
2019-04-14T15:59:09.009Z,7.80
2019-04-14T16:01:51.328Z,7.80
2019-04-14T16:04:28.510Z,7.80
2019-04-14T16:07:15.688Z,7.80
2019-04-14T16:10:03.998Z,7.80
2019-04-14T16:13:04.562Z,7.80
2019-04-14T16:15:58.912Z,7.90
2019-04-14T16:18:44.480Z,7.80
2019-04-14T16:21:13.701Z,7.80
2019-04-14T16:23:50.392Z,7.90
2019-04-14T16:26:25.463Z,7.90
2019-04-14T16:29:02.833Z,7.90
2019-04-14T16:31:51.271Z,7.90
2019-04-14T16:34:23.683Z,7.80
2019-04-14T16:36:52.911Z,7.80
2019-04-14T16:39:22.148Z,7.80
2019-04-14T16:41:51.438Z,7.80
2019-04-14T16:44:20.667Z,7.80
2019-04-14T16:46:49.959Z,7.80
2019-04-14T16:49:19.159Z,7.80
2019-04-14T16:51:55.448Z,7.80
2019-04-14T16:54:34.076Z,7.80
2019-04-14T16:57:32.442Z,7.80
2019-04-14T17:00:02.665Z,7.80
2019-04-14T17:02:31.896Z,7.80
2019-04-14T17:05:01.120Z,7.80
2019-04-14T17:07:30.400Z,7.70
2019-04-14T17:09:59.629Z,7.80
2019-04-14T17:12:28.968Z,7.70
2019-04-14T17:15:05.044Z,7.70
2019-04-14T17:18:05.484Z,7.70
2019-04-14T17:21:09.219Z,7.80
2019-04-14T17:24:16.875Z,7.70
2019-04-14T17:26:47.212Z,7.70
2019-04-14T17:29:20.772Z,7.70
2019-04-14T17:32:05.404Z,7.70
2019-04-14T17:34:53.671Z,7.70
2019-04-14T17:37:51.825Z,7.70
2019-04-14T17:40:41.092Z,7.60
2019-04-14T17:43:17.977Z,7.60
2019-04-14T17:46:10.231Z,7.60
2019-04-14T17:48:57.280Z,7.60
2019-04-14T17:51:33.147Z,7.60
2019-04-14T17:54:14.116Z,7.60
2019-04-14T17:56:49.528Z,7.60
2019-04-14T17:59:32.511Z,7.60
2019-04-14T18:02:05.892Z,7.60
2019-04-14T18:04:41.176Z,7.60
2019-04-14T18:07:17.911Z,7.60
2019-04-14T18:09:56.516Z,7.50
2019-04-14T18:12:38.747Z,7.50
2019-04-14T18:15:26.779Z,7.50
2019-04-14T18:18:24.080Z,7.50
2019-04-14T18:20:56.558Z,7.50
2019-04-14T18:23:26.007Z,7.50
2019-04-14T18:25:55.273Z,7.50
2019-04-14T18:28:53.210Z,7.50
2019-04-14T18:31:44.786Z,7.40
2019-04-14T18:34:38.880Z,7.40
2019-04-14T18:37:29.886Z,7.40
2019-04-14T18:40:11.718Z,7.40
2019-04-14T18:42:53.777Z,7.40
2019-04-14T18:45:32.884Z,7.40
2019-04-14T18:48:16.885Z,7.30
2019-04-14T18:51:08.376Z,7.30
2019-04-14T18:53:50.032Z,7.30
2019-04-14T18:56:50.526Z,7.30
2019-04-14T18:59:44.857Z,7.30
2019-04-14T19:02:16.052Z,7.30
2019-04-14T19:04:45.285Z,7.30
2019-04-14T19:07:14.487Z,7.30
2019-04-14T19:09:43.786Z,7.30
2019-04-14T19:12:40.867Z,7.30
2019-04-14T19:15:19.440Z,7.30
2019-04-14T19:17:58.226Z,7.30
2019-04-14T19:20:27.661Z,7.20
2019-04-14T19:22:56.844Z,7.20
2019-04-14T19:25:26.056Z,7.30
2019-04-14T19:27:55.895Z,7.30
2019-04-14T19:30:25.312Z,7.30
2019-04-14T19:32:54.630Z,7.30
2019-04-14T19:35:26.746Z,7.30
2019-04-14T19:37:54.863Z,7.30
2019-04-14T19:40:24.392Z,7.30
2019-04-14T19:42:53.902Z,7.30
2019-04-14T19:45:23.187Z,7.30
2019-04-14T19:47:52.368Z,7.30
2019-04-14T19:50:21.603Z,7.30
2019-04-14T19:52:51.687Z,7.30
2019-04-14T19:55:20.987Z,7.30
2019-04-14T19:57:50.183Z,7.30
2019-04-14T20:00:19.638Z,7.30
2019-04-14T20:02:48.847Z,7.30
2019-04-14T20:05:18.056Z,7.30
2019-04-14T20:07:47.284Z,7.30
2019-04-14T20:10:16.483Z,7.30
2019-04-14T20:12:45.709Z,7.30
2019-04-14T20:15:18.055Z,7.30
2019-04-14T20:18:12.210Z,7.30
2019-04-14T20:20:58.129Z,7.30
2019-04-14T20:23:32.468Z,7.30
2019-04-14T20:26:29.727Z,7.40
2019-04-14T20:29:27.112Z,7.40
2019-04-14T20:32:00.407Z,7.40
2019-04-14T20:34:29.646Z,7.50
2019-04-14T20:36:58.876Z,7.50
2019-04-14T20:39:29.379Z,7.60
2019-04-14T20:41:58.631Z,7.50
2019-04-14T20:44:27.935Z,7.50
2019-04-14T20:46:57.151Z,7.60
2019-04-14T20:49:26.383Z,7.60
2019-04-14T20:51:55.575Z,7.60
2019-04-14T20:54:24.779Z,7.60
2019-04-14T20:56:54.029Z,7.60
2019-04-14T20:59:23.208Z,7.60
2019-04-14T21:01:58.731Z,7.60
2019-04-14T21:04:48.652Z,7.60
2019-04-14T21:07:28.315Z,7.60
2019-04-14T21:10:19.348Z,7.60
2019-04-14T21:12:54.490Z,7.60
2019-04-14T21:15:54.784Z,7.50
2019-04-14T21:18:41.820Z,7.50
2019-04-14T21:21:30.267Z,7.50
2019-04-14T21:24:21.527Z,7.50
2019-04-14T21:27:09.793Z,7.50
2019-04-14T21:30:02.060Z,7.50
2019-04-14T21:32:38.763Z,7.50
2019-04-14T21:35:15.644Z,7.50
2019-04-14T21:37:59.993Z,7.50
2019-04-14T21:40:45.611Z,7.50
2019-04-14T21:43:14.940Z,7.50
2019-04-14T21:45:44.254Z,7.50
2019-04-14T21:48:13.503Z,7.50
2019-04-14T21:50:42.732Z,7.50
2019-04-14T21:53:11.936Z,7.50
2019-04-14T21:55:41.123Z,7.50
2019-04-14T21:58:35.315Z,7.50
2019-04-14T22:01:49.668Z,7.50
2019-04-14T22:04:36.536Z,7.50
2019-04-14T22:07:18.260Z,7.50
2019-04-14T22:09:47.513Z,7.50
2019-04-14T22:12:16.756Z,7.50
2019-04-14T22:14:46.044Z,7.50
2019-04-14T22:17:15.412Z,7.50
2019-04-14T22:19:44.595Z,7.60
2019-04-14T22:22:13.775Z,7.50
2019-04-14T22:24:43.160Z,7.50
2019-04-14T22:27:12.424Z,7.50
2019-04-14T22:29:41.633Z,7.50
2019-04-14T22:32:10.852Z,7.50
2019-04-14T22:34:40.019Z,7.50
2019-04-14T22:37:09.248Z,7.50
2019-04-14T22:39:39.389Z,7.50
2019-04-14T22:42:08.724Z,7.50
2019-04-14T22:44:37.935Z,7.50
2019-04-14T22:47:07.127Z,7.40
2019-04-14T22:49:36.436Z,7.40
2019-04-14T22:52:06.003Z,7.40
2019-04-14T22:54:35.225Z,7.40
2019-04-14T22:57:04.499Z,7.40
2019-04-14T22:59:33.800Z,7.40
2019-04-14T23:02:09.271Z,7.30
2019-04-14T23:04:45.311Z,7.30
2019-04-14T23:07:28.241Z,7.30
2019-04-14T23:10:15.143Z,7.30
2019-04-14T23:13:02.237Z,7.30
2019-04-14T23:15:54.538Z,7.30
2019-04-14T23:18:28.585Z,7.30
2019-04-14T23:21:32.265Z,7.30
2019-04-14T23:24:13.316Z,7.20
2019-04-14T23:26:52.401Z,7.20
2019-04-14T23:29:13.404Z,7.20
2019-04-14T23:31:42.667Z,7.20
2019-04-14T23:34:11.982Z,7.20
2019-04-14T23:36:41.159Z,7.20
2019-04-14T23:39:12.695Z,7.10
2019-04-14T23:41:41.935Z,7.10
2019-04-14T23:44:11.107Z,7.10
2019-04-14T23:46:40.323Z,7.10
2019-04-14T23:49:09.503Z,7.10
2019-04-14T23:51:38.740Z,7.10
2019-04-14T23:54:07.953Z,7.00
2019-04-14T23:56:37.151Z,7.00
2019-04-14T23:59:06.347Z,7.00
